Time;durP1;ratioP1;P1;durP2;ratioP2;P2;SDS_P1;SDS_P2;PMS_P1;PMS_P2;Temp;Humidity;BMP_temperature;BMP_pressure;BME280_temperature;BME280_humidity;BME280_pressure;Samples;Min_cycle;Max_cycle;Signal;HPM_P1;HPM_P2
2022/05/10 00:00:57;;;;;;;9.80;6.17;;;12.50;90.20;;;;;;5052476;28;20729;-65
2022/05/10 00:03:29;;;;;;;10.60;6.70;;;12.50;90.30;;;;;;5052594;28;20441;-65
2022/05/10 00:05:56;;;;;;;13.60;8.67;;;12.50;90.50;;;;;;5052661;28;20520;-65
2022/05/10 00:08:24;;;;;;;9.73;7.83;;;12.50;90.40;;;;;;5052595;28;20573;-65
2022/05/10 00:10:51;;;;;;;9.43;7.65;;;12.50;90.40;;;;;;5051477;28;20441;-65
2022/05/10 00:13:19;;;;;;;8.60;7.27;;;12.50;90.70;;;;;;5051996;28;20190;-65
2022/05/10 00:15:47;;;;;;;6.97;6.13;;;12.50;90.50;;;;;;5051568;28;20864;-65
2022/05/10 00:18:16;;;;;;;7.70;6.90;;;12.40;90.50;;;;;;5052547;28;20473;-65
2022/05/10 00:20:45;;;;;;;7.70;5.90;;;12.40;90.70;;;;;;5051622;28;20188;-65
2022/05/10 00:23:12;;;;;;;8.33;6.60;;;12.40;90.50;;;;;;5052647;28;20271;-65
2022/05/10 00:25:41;;;;;;;8.50;6.80;;;12.40;90.60;;;;;;5051488;28;20433;-65
2022/05/10 00:28:09;;;;;;;7.67;6.20;;;12.40;90.70;;;;;;5052181;28;20853;-65
2022/05/10 00:30:36;;;;;;;7.05;6.35;;;12.40;90.60;;;;;;5051378;28;20447;-65
2022/05/10 00:33:03;;;;;;;7.33;6.47;;;12.30;90.20;;;;;;5051130;28;20285;-65
2022/05/10 00:35:33;;;;;;;7.60;6.20;;;12.20;89.20;;;;;;5052133;28;20452;-65
2022/05/10 00:38:02;;;;;;;8.23;6.32;;;12.10;89.80;;;;;;5051252;28;20191;-65
2022/05/10 00:40:32;;;;;;;7.97;6.18;;;12.00;90.10;;;;;;5052122;28;20194;-65
2022/05/10 00:43:06;;;;;;;16.33;6.05;;;12.00;90.00;;;;;;5051395;28;20188;-65
2022/05/10 00:45:40;;;;;;;6.90;6.20;;;12.00;90.10;;;;;;5052054;28;20281;-65
2022/05/10 00:48:14;;;;;;;7.88;5.90;;;12.00;89.80;;;;;;5051676;28;20218;-65
2022/05/10 00:50:46;;;;;;;6.80;5.63;;;11.90;89.30;;;;;;5055917;28;20232;-65
2022/05/10 00:53:18;;;;;;;10.38;5.68;;;11.80;89.80;;;;;;5055145;28;20556;-64
2022/05/10 00:55:51;;;;;;;6.70;5.63;;;11.80;90.40;;;;;;5055741;28;20197;-65
2022/05/10 00:58:26;;;;;;;6.47;4.90;;;11.80;90.40;;;;;;5054990;28;20198;-65
2022/05/10 01:00:55;;;;;;;6.13;5.15;;;11.70;90.70;;;;;;5055574;28;20186;-65
2022/05/10 01:03:27;;;;;;;7.57;5.25;;;11.70;91.00;;;;;;5055035;28;20193;-65
2022/05/10 01:06:02;;;;;;;12.18;6.50;;;11.60;91.30;;;;;;5055416;28;20286;-65
2022/05/10 01:08:36;;;;;;;8.55;5.95;;;11.60;91.40;;;;;;5054517;28;20216;-65
2022/05/10 01:11:10;;;;;;;9.15;6.90;;;11.50;91.10;;;;;;5054679;28;20191;-65
2022/05/10 01:13:44;;;;;;;9.45;6.50;;;11.50;91.00;;;;;;5055088;28;20193;-64
2022/05/10 01:16:15;;;;;;;10.07;7.40;;;11.50;91.00;;;;;;5054758;28;20268;-65
2022/05/10 01:18:42;;;;;;;9.82;5.93;;;11.50;91.00;;;;;;5055370;28;20187;-65
2022/05/10 01:21:24;;;;;;;7.57;6.63;;;11.50;90.80;;;;;;5054485;28;20281;-65
2022/05/10 01:24:16;;;;;;;8.23;5.78;;;11.50;90.60;;;;;;5055020;28;20603;-65
2022/05/10 01:26:55;;;;;;;10.57;6.90;;;11.50;90.50;;;;;;5054175;28;20229;-65
2022/05/10 01:29:28;;;;;;;10.75;7.03;;;11.50;90.60;;;;;;5055072;28;20305;-65
2022/05/10 01:34:40;;;;;;;7.30;6.45;;;11.40;91.60;;;;;;5053996;28;20190;-65
2022/05/10 01:37:12;;;;;;;9.98;6.40;;;11.50;91.90;;;;;;5054827;28;20201;-65
2022/05/10 01:39:45;;;;;;;7.55;6.75;;;11.40;92.00;;;;;;5054309;28;20293;-65
2022/05/10 01:42:18;;;;;;;6.68;5.97;;;11.50;92.20;;;;;;5054908;28;20532;-64
2022/05/10 01:44:53;;;;;;;8.80;6.22;;;11.40;92.40;;;;;;5054239;28;20189;-65
2022/05/10 01:47:26;;;;;;;6.53;5.88;;;11.40;92.40;;;;;;5053688;28;20232;-65
2022/05/10 01:50:02;;;;;;;6.43;5.65;;;11.40;92.40;;;;;;5054785;28;20565;-65
2022/05/10 01:52:35;;;;;;;7.35;4.75;;;11.40;92.00;;;;;;5053077;28;20197;-65
2022/05/10 01:55:12;;;;;;;6.85;5.43;;;11.40;91.20;;;;;;5054840;28;20281;-65
2022/05/10 01:57:39;;;;;;;5.65;4.93;;;11.40;91.10;;;;;;5052250;28;20327;-65
2022/05/10 02:00:12;;;;;;;8.38;5.38;;;11.40;90.90;;;;;;5054162;28;20198;-64
2022/05/10 02:02:44;;;;;;;7.43;4.68;;;11.30;90.30;;;;;;5053854;28;20690;-65
2022/05/10 02:05:17;;;;;;;6.18;4.38;;;11.10;89.20;;;;;;5054722;28;20234;-65
2022/05/10 02:07:48;;;;;;;5.53;4.22;;;11.00;89.20;;;;;;5053890;28;20285;-65
2022/05/10 02:10:23;;;;;;;5.50;4.50;;;10.80;88.30;;;;;;5053683;28;20224;-65
2022/05/10 02:12:58;;;;;;;6.35;5.75;;;10.70;89.60;;;;;;5053819;28;20273;-65
2022/05/10 02:15:33;;;;;;;5.80;5.20;;;10.60;90.70;;;;;;5054493;28;20280;-65
2022/05/10 02:18:09;;;;;;;6.85;5.15;;;10.60;90.90;;;;;;5053886;28;20188;-65
2022/05/10 02:20:43;;;;;;;5.78;5.10;;;10.50;91.00;;;;;;5054003;28;20188;-65
2022/05/10 02:23:15;;;;;;;5.35;4.40;;;10.50;90.90;;;;;;5053356;28;20190;-65
2022/05/10 02:25:48;;;;;;;6.25;4.53;;;10.50;90.90;;;;;;5054637;28;20286;-64
2022/05/10 02:28:21;;;;;;;8.90;6.70;;;10.30;91.70;;;;;;5052479;28;20775;-65
2022/05/10 02:30:53;;;;;;;7.88;5.80;;;10.40;92.20;;;;;;5042743;28;20219;-66
2022/05/10 02:33:20;;;;;;;9.50;7.50;;;10.40;92.50;;;;;;5053555;28;20195;-65
2022/05/10 02:35:50;;;;;;;17.30;10.05;;;10.40;92.00;;;;;;5052384;28;20649;-65
2022/05/10 02:38:20;;;;;;;17.58;9.70;;;10.40;91.90;;;;;;5054127;28;20193;-65
2022/05/10 02:40:51;;;;;;;16.15;9.70;;;10.40;92.20;;;;;;5052941;28;20183;-66
2022/05/10 02:43:24;;;;;;;14.93;7.63;;;10.50;92.20;;;;;;5053792;28;20198;-66
2022/05/10 02:45:54;;;;;;;7.22;6.15;;;10.50;92.20;;;;;;5052712;28;20595;-65
2022/05/10 02:48:24;;;;;;;6.22;4.35;;;10.60;92.20;;;;;;5053787;28;20285;-65
2022/05/10 02:50:51;;;;;;;5.82;4.88;;;10.50;91.40;;;;;;5052694;28;20253;-65
2022/05/10 02:53:18;;;;;;;9.80;7.40;;;10.30;90.90;;;;;;5053650;28;20190;-65
2022/05/10 02:55:51;;;;;;;9.68;6.70;;;10.20;91.40;;;;;;5052971;28;20286;-65
2022/05/10 02:58:27;;;;;;;7.18;5.38;;;10.20;91.40;;;;;;5053732;28;20200;-66
2022/05/10 03:01:01;;;;;;;10.95;6.70;;;10.10;91.60;;;;;;5052848;28;20194;-66
2022/05/10 03:03:30;;;;;;;7.35;6.50;;;10.10;91.70;;;;;;5053014;28;20192;-65
2022/05/10 03:05:57;;;;;;;6.68;5.28;;;10.10;91.70;;;;;;5052523;28;20200;-65
2022/05/10 03:08:24;;;;;;;6.25;5.40;;;10.10;91.50;;;;;;5053126;28;20197;-65
2022/05/10 03:10:51;;;;;;;7.55;6.20;;;10.10;91.60;;;;;;5052180;28;20224;-69
2022/05/10 03:13:19;;;;;;;12.07;6.80;;;10.10;92.00;;;;;;5053081;28;20193;-65
2022/05/10 03:15:46;;;;;;;10.65;9.65;;;10.20;92.30;;;;;;5051318;28;20190;-65
2022/05/10 03:18:14;;;;;;;11.73;10.63;;;10.20;92.30;;;;;;5052257;28;20213;-65
2022/05/10 03:20:41;;;;;;;10.73;9.18;;;10.20;92.60;;;;;;5052426;28;20209;-65
2022/05/10 03:23:08;;;;;;;7.40;6.70;;;10.30;92.80;;;;;;5053095;28;20233;-64
2022/05/10 03:25:35;;;;;;;6.60;5.28;;;10.30;92.60;;;;;;5052505;28;20178;-65
2022/05/10 03:28:02;;;;;;;7.95;5.90;;;10.30;91.90;;;;;;5053337;28;20190;-65
2022/05/10 03:30:30;;;;;;;6.00;5.03;;;10.30;91.40;;;;;;5052256;28;20672;-65
2022/05/10 03:32:58;;;;;;;7.38;6.05;;;10.20;91.20;;;;;;5052945;28;20194;-65
2022/05/10 03:35:27;;;;;;;7.32;5.53;;;10.20;91.50;;;;;;5051973;28;20281;-64
2022/05/10 03:37:54;;;;;;;8.00;5.13;;;10.20;91.50;;;;;;5052816;28;20187;-65
2022/05/10 03:40:21;;;;;;;6.82;5.03;;;10.20;91.50;;;;;;5052976;28;20190;-69
2022/05/10 03:42:49;;;;;;;6.25;5.63;;;10.20;91.10;;;;;;5052509;28;20269;-65
2022/05/10 03:45:18;;;;;;;5.47;4.40;;;10.20;91.30;;;;;;5052631;28;20194;-65
2022/05/10 03:47:46;;;;;;;5.25;4.72;;;10.20;91.10;;;;;;5051904;28;20234;-64
2022/05/10 03:50:16;;;;;;;4.13;3.70;;;10.00;90.70;;;;;;5052823;28;20252;-65
2022/05/10 03:52:44;;;;;;;8.10;5.85;;;10.00;90.80;;;;;;5051840;28;20663;-65
2022/05/10 03:55:14;;;;;;;6.05;5.18;;;9.90;91.70;;;;;;5052598;28;20200;-65
2022/05/10 03:57:41;;;;;;;7.68;6.07;;;9.90;92.40;;;;;;5052218;28;20543;-65
2022/05/10 04:00:12;;;;;;;5.65;4.80;;;9.90;92.70;;;;;;5052944;28;20277;-65
2022/05/10 04:02:39;;;;;;;8.65;5.47;;;9.90;92.50;;;;;;5051846;28;20252;-65
2022/05/10 04:05:08;;;;;;;7.38;4.60;;;9.80;92.40;;;;;;5052715;28;20310;-65
2022/05/10 04:07:35;;;;;;;5.53;4.80;;;9.80;92.70;;;;;;5051954;28;20182;-65
2022/05/10 04:10:04;;;;;;;5.63;4.70;;;9.80;93.00;;;;;;5052544;28;20222;-64
2022/05/10 04:12:31;;;;;;;5.97;5.07;;;9.90;93.00;;;;;;5050954;28;20277;-64
2022/05/10 04:14:58;;;;;;;8.15;4.57;;;9.90;93.00;;;;;;5052663;28;20281;-65
2022/05/10 04:17:25;;;;;;;8.98;6.28;;;9.90;93.20;;;;;;5052322;28;20550;-64
2022/05/10 04:19:52;;;;;;;8.95;5.32;;;9.90;93.60;;;;;;5052706;28;20190;-65
2022/05/10 04:22:18;;;;;;;7.43;5.22;;;10.00;93.20;;;;;;5052128;28;20292;-65
2022/05/10 04:24:45;;;;;;;7.18;5.53;;;10.10;93.20;;;;;;5056946;28;20281;-65
2022/05/10 04:27:14;;;;;;;6.78;5.22;;;10.10;93.20;;;;;;5054991;28;20194;-65
2022/05/10 04:29:41;;;;;;;6.28;5.10;;;10.20;93.40;;;;;;5056702;28;20218;-64
2022/05/10 04:32:08;;;;;;;8.98;5.47;;;10.30;93.50;;;;;;5055879;28;20273;-65
2022/05/10 04:34:36;;;;;;;6.10;5.00;;;10.30;93.50;;;;;;5056658;28;20654;-65
2022/05/10 04:37:03;;;;;;;5.93;5.07;;;10.40;93.50;;;;;;5055700;28;20198;-65
2022/05/10 04:41:24;;;;;;;7.57;6.80;;;10.50;93.80;;;;;;5056596;28;20198;-65
2022/05/10 04:42:17;;;;;;;6.22;5.00;;;10.50;93.90;;;;;;5055938;28;20201;-66
2022/05/10 04:44:44;;;;;;;6.90;5.25;;;10.50;94.00;;;;;;5055865;28;20293;-65
2022/05/10 04:47:11;;;;;;;8.98;6.90;;;10.60;94.20;;;;;;5056281;28;20317;-65
2022/05/10 04:49:38;;;;;;;8.98;5.72;;;10.70;94.30;;;;;;5055589;28;20309;-65
2022/05/10 04:52:05;;;;;;;7.43;5.55;;;10.70;94.10;;;;;;5056140;28;20281;-65
2022/05/10 04:54:32;;;;;;;8.13;6.00;;;10.80;94.20;;;;;;5055177;28;20238;-65
2022/05/10 04:56:59;;;;;;;7.65;6.22;;;10.90;94.10;;;;;;5055868;28;20186;-65
2022/05/10 04:59:27;;;;;;;10.93;6.63;;;10.90;94.20;;;;;;5054914;28;20194;-66
2022/05/10 05:01:54;;;;;;;8.07;6.55;;;10.80;94.90;;;;;;5056008;28;20284;-65
2022/05/10 05:04:21;;;;;;;8.05;6.55;;;10.90;95.30;;;;;;5055788;28;20194;-66
2022/05/10 05:06:50;;;;;;;6.97;5.65;;;11.00;95.70;;;;;;5054375;28;20703;-65
2022/05/10 05:09:17;;;;;;;7.25;5.50;;;11.10;95.70;;;;;;5055771;28;20197;-65
2022/05/10 05:11:44;;;;;;;9.20;6.90;;;11.20;95.70;;;;;;5055048;28;20277;-65
2022/05/10 05:14:11;;;;;;;8.18;6.20;;;11.30;95.90;;;;;;5055699;28;20186;-65
2022/05/10 05:16:39;;;;;;;7.97;6.45;;;11.40;95.90;;;;;;5055057;28;20644;-65
2022/05/10 05:19:06;;;;;;;6.85;5.95;;;11.60;95.80;;;;;;5052761;28;20277;-66
2022/05/10 05:21:33;;;;;;;6.63;5.93;;;11.70;95.70;;;;;;5055226;28;20671;-65
2022/05/10 05:24:00;;;;;;;10.10;7.50;;;11.80;95.70;;;;;;5053118;28;20277;-65
2022/05/10 05:26:27;;;;;;;7.43;6.63;;;11.90;95.60;;;;;;5055723;28;20294;-65
2022/05/10 05:28:54;;;;;;;9.10;6.38;;;12.10;95.50;;;;;;5054848;28;20545;-66
2022/05/10 05:31:22;;;;;;;12.15;6.65;;;12.20;95.60;;;;;;5055539;28;20565;-65
2022/05/10 05:33:50;;;;;;;9.40;6.32;;;12.30;95.50;;;;;;5053954;28;20274;-65
2022/05/10 05:36:19;;;;;;;8.20;6.38;;;12.40;95.10;;;;;;5055370;28;20197;-65
2022/05/10 05:38:46;;;;;;;9.20;6.75;;;12.60;94.80;;;;;;5055261;28;20727;-65
2022/05/10 05:41:13;;;;;;;8.52;6.10;;;12.70;94.90;;;;;;5051180;28;20194;-65
2022/05/10 05:43:40;;;;;;;8.07;6.47;;;12.80;94.40;;;;;;5055258;28;20237;-65
2022/05/10 05:46:08;;;;;;;7.50;6.37;;;12.90;94.60;;;;;;5054441;28;20539;-65
2022/05/10 05:48:35;;;;;;;6.93;5.40;;;13.00;94.40;;;;;;5054524;28;20444;-67
2022/05/10 05:51:04;;;;;;;6.63;5.13;;;13.00;94.40;;;;;;5054483;28;20824;-66
2022/05/10 05:53:30;;;;;;;6.30;4.77;;;13.10;94.10;;;;;;5055028;28;20949;-65
2022/05/10 05:56:01;;;;;;;5.80;4.60;;;13.10;94.40;;;;;;5053790;28;20444;-66
2022/05/10 05:58:28;;;;;;;6.40;4.83;;;13.20;94.90;;;;;;5053934;28;20472;-65
2022/05/10 06:00:55;;;;;;;4.70;3.53;;;13.30;94.20;;;;;;5053657;28;20448;-65
2022/05/10 06:03:22;;;;;;;4.80;4.10;;;13.40;93.90;;;;;;5054325;28;20449;-65
2022/05/10 06:05:49;;;;;;;6.97;4.97;;;13.50;94.40;;;;;;5052609;28;20459;-66
2022/05/10 06:08:19;;;;;;;6.43;4.43;;;13.60;94.50;;;;;;5054547;28;20619;-65
2022/05/10 06:10:50;;;;;;;4.93;4.23;;;13.70;93.90;;;;;;5053483;28;20840;-65
2022/05/10 06:13:18;;;;;;;4.73;3.60;;;13.80;93.50;;;;;;5054536;28;20437;-66
2022/05/10 06:15:45;;;;;;;5.50;4.20;;;13.90;92.50;;;;;;5054298;28;20526;-65
2022/05/10 06:18:12;;;;;;;4.87;3.90;;;13.90;92.80;;;;;;5054408;28;20437;-65
2022/05/10 06:20:39;;;;;;;5.27;4.77;;;14.00;93.10;;;;;;5053230;28;20514;-65
2022/05/10 06:23:06;;;;;;;4.27;3.50;;;14.20;92.80;;;;;;5054661;28;20472;-65
2022/05/10 06:25:36;;;;;;;4.70;3.40;;;14.30;91.50;;;;;;5050547;28;20520;-66
2022/05/10 06:28:03;;;;;;;4.30;3.90;;;14.40;91.20;;;;;;5052460;28;20531;-67
2022/05/10 06:30:31;;;;;;;5.60;4.13;;;14.50;91.50;;;;;;5052365;28;20508;-67
2022/05/10 06:32:59;;;;;;;4.80;3.97;;;14.50;90.50;;;;;;5053588;28;20433;-65
2022/05/10 06:35:27;;;;;;;4.43;3.57;;;14.60;90.70;;;;;;5054142;28;20825;-65
2022/05/10 06:40:40;;;;;;;7.47;3.23;;;14.80;90.80;;;;;;5054460;28;20483;-65
2022/05/10 06:43:07;;;;;;;3.93;3.20;;;15.00;90.50;;;;;;5054126;28;20444;-66
2022/05/10 06:45:34;;;;;;;5.93;4.20;;;15.10;90.10;;;;;;5053905;28;20441;-65
2022/05/10 06:48:01;;;;;;;4.03;3.20;;;15.20;90.20;;;;;;5053995;28;20475;-65
2022/05/10 06:50:28;;;;;;;3.60;3.00;;;15.40;89.60;;;;;;5054000;28;20476;-65
2022/05/10 06:52:58;;;;;;;4.30;3.20;;;15.50;89.20;;;;;;5052381;28;20930;-65
2022/05/10 06:55:26;;;;;;;9.30;3.33;;;15.70;88.80;;;;;;5053911;28;20472;-66
2022/05/10 06:57:54;;;;;;;3.50;3.10;;;15.80;87.90;;;;;;5054178;28;20472;-66
2022/05/10 07:00:22;;;;;;;4.53;3.13;;;16.00;87.50;;;;;;5053909;28;20466;-67
2022/05/10 07:02:49;;;;;;;6.40;2.80;;;16.10;85.60;;;;;;5053845;28;20463;-65
2022/05/10 07:05:17;;;;;;;3.67;2.93;;;16.30;85.20;;;;;;5053361;28;20443;-65
2022/05/10 07:07:45;;;;;;;3.70;2.73;;;16.40;85.10;;;;;;5053433;28;20998;-65
2022/05/10 07:10:14;;;;;;;3.87;3.00;;;16.60;83.90;;;;;;5053666;28;20485;-65
2022/05/10 07:12:43;;;;;;;4.60;3.60;;;16.70;83.70;;;;;;5053840;28;20445;-65
2022/05/10 07:15:13;;;;;;;4.17;3.10;;;16.90;82.80;;;;;;5053731;28;20433;-65
2022/05/10 07:17:40;;;;;;;4.13;3.03;;;17.00;80.50;;;;;;5053617;28;20800;-65
2022/05/10 07:20:09;;;;;;;4.33;3.17;;;17.20;79.00;;;;;;5053442;28;20447;-65
2022/05/10 07:22:36;;;;;;;4.60;3.27;;;17.30;78.30;;;;;;5053347;28;21010;-66
2022/05/10 07:25:04;;;;;;;4.63;2.77;;;17.50;77.50;;;;;;5053447;28;20437;-65
2022/05/10 07:27:31;;;;;;;6.17;4.73;;;17.60;76.40;;;;;;5053253;28;20864;-66
2022/05/10 07:29:58;;;;;;;3.27;2.80;;;17.80;77.20;;;;;;5053338;28;20520;-65
2022/05/10 07:32:27;;;;;;;6.20;4.80;;;17.90;77.20;;;;;;5053444;28;20440;-65
2022/05/10 07:34:55;;;;;;;5.27;3.00;;;18.10;77.40;;;;;;5053131;28;20443;-65
2022/05/10 07:37:22;;;;;;;5.67;2.80;;;18.20;76.20;;;;;;5053351;28;20444;-67
2022/05/10 07:39:49;;;;;;;6.60;3.23;;;18.30;73.50;;;;;;5053021;28;20948;-65
2022/05/10 07:42:16;;;;;;;4.50;3.30;;;18.50;72.80;;;;;;5053372;28;20523;-65
2022/05/10 07:44:43;;;;;;;4.13;3.20;;;18.60;71.40;;;;;;5053396;28;20443;-66
2022/05/10 07:47:10;;;;;;;5.30;3.10;;;18.80;72.20;;;;;;5053125;28;20472;-66
2022/05/10 07:49:38;;;;;;;4.00;2.53;;;19.00;73.60;;;;;;5053083;28;21398;-66
2022/05/10 07:52:06;;;;;;;7.10;2.90;;;19.20;73.00;;;;;;5052943;28;20485;-65
2022/05/10 07:54:33;;;;;;;3.53;2.33;;;19.30;71.30;;;;;;5053076;28;20783;-65
2022/05/10 07:57:00;;;;;;;4.50;3.10;;;19.50;70.90;;;;;;5052584;28;20451;-66
2022/05/10 07:59:29;;;;;;;4.03;3.10;;;19.60;70.20;;;;;;5053196;28;20455;-66
2022/05/10 08:01:56;;;;;;;5.77;3.53;;;19.80;69.60;;;;;;5052895;28;20477;-66
2022/05/10 08:04:23;;;;;;;4.00;2.87;;;20.00;69.30;;;;;;5053086;28;20433;-65
2022/05/10 08:06:51;;;;;;;6.40;3.80;;;20.10;70.40;;;;;;5053020;28;20441;-66
2022/05/10 08:09:19;;;;;;;3.90;3.10;;;20.20;68.90;;;;;;5052646;28;20444;-66
2022/05/10 08:11:46;;;;;;;6.03;4.00;;;20.40;64.00;;;;;;5052885;28;20542;-65
2022/05/10 08:14:14;;;;;;;4.97;3.40;;;20.50;60.50;;;;;;5052842;28;20437;-66
2022/05/10 08:16:41;;;;;;;4.20;3.20;;;20.50;60.60;;;;;;5052906;28;20656;-65
2022/05/10 08:19:08;;;;;;;3.40;2.90;;;20.60;61.60;;;;;;5052766;28;20437;-66
2022/05/10 08:21:35;;;;;;;6.20;3.70;;;20.70;62.60;;;;;;5052727;28;20437;-66
2022/05/10 08:24:05;;;;;;;7.70;3.40;;;20.80;61.80;;;;;;5052343;28;20523;-65
2022/05/10 08:26:32;;;;;;;5.20;3.60;;;20.90;63.10;;;;;;5052720;28;20467;-66
2022/05/10 08:28:58;;;;;;;4.20;3.60;;;21.10;63.00;;;;;;5052956;28;20447;-66
2022/05/10 08:31:25;;;;;;;5.57;4.30;;;21.20;60.10;;;;;;5052624;28;20484;-66
2022/05/10 08:33:52;;;;;;;5.73;3.67;;;21.40;60.80;;;;;;5052576;28;20933;-66
2022/05/10 08:36:19;;;;;;;7.40;3.53;;;21.50;61.50;;;;;;5052504;28;20439;-66
2022/05/10 08:38:46;;;;;;;5.20;3.93;;;21.70;61.80;;;;;;5052637;28;20515;-66
2022/05/10 08:41:21;;;;;;;4.90;4.00;;;21.70;58.40;;;;;;5052524;28;20437;-66
2022/05/10 08:43:51;;;;;;;5.10;4.43;;;21.90;58.90;;;;;;5052627;28;20442;-66
2022/05/10 08:46:29;;;;;;;5.73;3.77;;;22.00;58.00;;;;;;5052413;28;20474;-66
2022/05/10 08:49:11;;;;;;;8.77;4.33;;;22.20;59.50;;;;;;5052603;28;20444;-66
2022/05/10 08:51:38;;;;;;;5.03;4.53;;;22.30;59.00;;;;;;5052614;28;20480;-65
2022/05/10 08:54:06;;;;;;;4.93;3.70;;;22.50;56.70;;;;;;5052389;28;20440;-65
2022/05/10 08:56:42;;;;;;;4.60;4.10;;;22.60;55.40;;;;;;5052211;28;20447;-66
2022/05/10 08:59:18;;;;;;;5.60;4.47;;;22.60;54.80;;;;;;5052445;28;20447;-66
2022/05/10 09:01:57;;;;;;;5.63;4.40;;;22.70;56.00;;;;;;5052671;28;20472;-66
2022/05/10 09:04:39;;;;;;;6.70;4.40;;;22.80;57.40;;;;;;5052488;28;20437;-66
2022/05/10 09:07:16;;;;;;;5.10;4.10;;;23.00;57.60;;;;;;5052475;28;20528;-66
2022/05/10 09:10:01;;;;;;;8.53;4.33;;;23.10;55.50;;;;;;5054216;28;20938;-66
2022/05/10 09:12:30;;;;;;;6.00;3.80;;;23.20;54.80;;;;;;5056031;28;20496;-66
2022/05/10 09:15:00;;;;;;;4.77;3.50;;;23.30;55.70;;;;;;5055884;28;20443;-66
2022/05/10 09:17:30;;;;;;;5.30;4.40;;;23.50;55.90;;;;;;5056049;28;20451;-69
2022/05/10 09:19:57;;;;;;;5.97;4.00;;;23.60;53.90;;;;;;5055874;28;20449;-66
2022/05/10 09:22:35;;;;;;;5.13;3.17;;;23.70;52.50;;;;;;5055718;28;20778;-65
2022/05/10 09:25:08;;;;;;;6.43;3.70;;;23.80;53.80;;;;;;5051754;28;20982;-66
2022/05/10 09:27:39;;;;;;;4.23;3.83;;;23.90;52.30;;;;;;5054490;28;20532;-66
2022/05/10 09:30:07;;;;;;;6.33;3.83;;;24.00;51.10;;;;;;5054377;28;20459;-66
2022/05/10 09:35:23;;;;;;;7.70;4.00;;;24.00;52.30;;;;;;5054147;28;20907;-66
2022/05/10 09:37:53;;;;;;;4.20;3.77;;;24.20;52.80;;;;;;5054704;28;20455;-65
2022/05/10 09:40:32;;;;;;;4.50;3.07;;;24.30;48.20;;;;;;5054638;28;20786;-66
2022/05/10 09:43:20;;;;;;;5.43;3.50;;;24.30;48.00;;;;;;5053913;28;20441;-65
2022/05/10 09:46:05;;;;;;;4.20;3.63;;;24.40;47.60;;;;;;5051127;28;20447;-67
2022/05/10 09:48:33;;;;;;;4.07;3.67;;;24.40;46.40;;;;;;5054125;28;20791;-66
2022/05/10 09:51:00;;;;;;;4.27;3.47;;;24.40;46.90;;;;;;5053838;28;20530;-66
2022/05/10 09:53:29;;;;;;;6.03;4.63;;;24.50;48.00;;;;;;5053699;28;20445;-66
2022/05/10 09:56:00;;;;;;;4.20;3.57;;;24.60;49.20;;;;;;5053891;28;20445;-66
2022/05/10 09:58:31;;;;;;;6.93;3.07;;;24.60;46.50;;;;;;5053992;28;20450;-66
2022/05/10 10:01:00;;;;;;;4.10;3.50;;;24.70;47.90;;;;;;5053729;28;20471;-67
2022/05/10 10:03:32;;;;;;;6.93;3.93;;;24.80;48.60;;;;;;5053617;28;20543;-66
2022/05/10 10:06:17;;;;;;;8.50;3.80;;;24.90;46.50;;;;;;5053860;28;20444;-67
2022/05/10 10:08:46;;;;;;;4.30;3.80;;;24.90;48.20;;;;;;5053904;28;20786;-65
2022/05/10 10:11:25;;;;;;;6.47;4.07;;;25.10;48.70;;;;;;5053654;28;20493;-66
2022/05/10 10:13:55;;;;;;;6.70;4.10;;;25.20;45.90;;;;;;5051209;28;20798;-66
2022/05/10 10:16:25;;;;;;;7.33;3.80;;;25.30;46.50;;;;;;5035079;28;20465;-66
2022/05/10 10:18:54;;;;;;;4.80;4.00;;;25.40;46.60;;;;;;5034464;28;20444;-66
2022/05/10 10:21:27;;;;;;;9.70;3.70;;;25.40;47.10;;;;;;5033666;28;20440;-66
2022/05/10 10:23:58;;;;;;;4.17;3.60;;;25.50;45.50;;;;;;5034930;28;20776;-66
2022/05/10 10:26:32;;;;;;;7.00;3.77;;;25.60;45.10;;;;;;5034492;28;20444;-68
2022/05/10 10:29:10;;;;;;;4.63;2.93;;;25.70;43.60;;;;;;5034221;28;21010;-66
2022/05/10 10:31:41;;;;;;;5.00;3.30;;;25.90;42.60;;;;;;5034499;28;20596;-66
2022/05/10 10:34:13;;;;;;;6.20;3.77;;;25.90;41.30;;;;;;5034543;28;20449;-66
2022/05/10 10:36:46;;;;;;;4.57;3.90;;;25.90;41.60;;;;;;5034431;28;20469;-66
2022/05/10 10:39:20;;;;;;;7.87;3.40;;;25.90;40.70;;;;;;5034020;28;20438;-66
2022/05/10 10:41:51;;;;;;;4.20;3.10;;;25.90;39.10;;;;;;5034555;28;20441;-67
2022/05/10 10:44:22;;;;;;;6.60;4.03;;;25.90;40.20;;;;;;5034420;28;20920;-66
2022/05/10 10:47:01;;;;;;;3.30;2.80;;;25.90;38.20;;;;;;5034047;28;20508;-66
2022/05/10 10:49:39;;;;;;;4.60;3.50;;;25.90;39.30;;;;;;5034342;28;20843;-66
2022/05/10 10:52:06;;;;;;;5.33;3.10;;;26.00;40.80;;;;;;5033680;28;20539;-63
2022/05/10 10:54:34;;;;;;;4.87;3.90;;;26.00;40.20;;;;;;5034216;28;20444;-63
2022/05/10 10:57:17;;;;;;;5.80;3.60;;;26.00;41.20;;;;;;5034122;28;20441;-64
2022/05/10 11:00:07;;;;;;;6.10;3.30;;;26.20;42.90;;;;;;5034081;28;20437;-63
2022/05/10 11:03:01;;;;;;;5.23;3.20;;;26.30;43.40;;;;;;5034045;28;20443;-63
2022/05/10 11:05:53;;;;;;;6.67;3.30;;;26.40;43.30;;;;;;5037651;28;20445;-64
2022/05/10 11:08:36;;;;;;;8.77;3.73;;;26.60;43.80;;;;;;5053679;28;20469;-65
2022/05/10 11:11:10;;;;;;;4.40;3.17;;;26.90;43.70;;;;;;5053171;28;20436;-64
2022/05/10 11:13:45;;;;;;;6.77;3.47;;;27.00;42.30;;;;;;5053906;28;20526;-63
2022/05/10 11:16:34;;;;;;;6.23;3.70;;;27.10;43.40;;;;;;5052554;28;20930;-63
2022/05/10 11:19:48;;;;;;;4.20;3.60;;;27.20;42.40;;;;;;5050597;28;20433;-68
2022/05/10 11:22:29;;;;;;;5.40;3.50;;;27.20;41.60;;;;;;5030872;28;20539;-67
2022/05/10 11:25:07;;;;;;;3.93;3.23;;;27.30;41.20;;;;;;5031054;28;20929;-65
2022/05/10 11:27:55;;;;;;;5.60;3.30;;;27.40;41.50;;;;;;5035584;28;20831;-64
2022/05/10 11:30:28;;;;;;;3.90;3.23;;;27.40;40.10;;;;;;5053269;28;20447;-64
2022/05/10 11:33:07;;;;;;;4.87;3.60;;;27.40;40.10;;;;;;5049602;28;20484;-63
2022/05/10 11:35:56;;;;;;;4.63;3.60;;;27.40;36.10;;;;;;5052187;28;20512;-63
2022/05/10 11:38:48;;;;;;;4.50;3.63;;;27.40;39.20;;;;;;5053053;28;20528;-64
2022/05/10 11:41:25;;;;;;;5.00;3.73;;;27.50;38.10;;;;;;5052127;28;20536;-63
2022/05/10 11:44:29;;;;;;;4.37;3.30;;;27.40;40.60;;;;;;5052798;28;20447;-64
2022/05/10 11:47:44;;;;;;;5.27;3.37;;;27.50;41.30;;;;;;5048197;28;20986;-63
2022/05/10 11:51:38;;;;;;;3.87;3.00;;;27.60;40.80;;;;;;5052883;28;20523;-63
2022/05/10 11:53:52;;;;;;;4.20;3.47;;;27.60;40.20;;;;;;5052708;28;21001;-63
2022/05/10 11:56:19;;;;;;;3.80;3.30;;;27.60;39.90;;;;;;5053117;28;20440;-63
2022/05/10 11:58:46;;;;;;;3.63;2.90;;;27.70;41.30;;;;;;5052715;28;20946;-64
2022/05/10 12:01:34;;;;;;;5.60;3.90;;;27.70;37.00;;;;;;5052210;28;20447;-63
2022/05/10 12:04:01;;;;;;;4.00;3.10;;;27.60;35.80;;;;;;5052448;28;20487;-63
2022/05/10 12:06:47;;;;;;;5.17;3.33;;;27.40;36.60;;;;;;5052711;28;20471;-63
2022/05/10 12:09:17;;;;;;;4.30;3.17;;;27.30;37.60;;;;;;5052780;28;20448;-64
2022/05/10 12:11:44;;;;;;;4.23;3.83;;;27.30;39.10;;;;;;5052461;28;20567;-63
2022/05/10 12:23:20;;;;;;;3.63;2.73;;;27.40;38.70;;;;;;5052426;28;20974;-64
2022/05/10 12:25:59;;;;;;;3.63;2.83;;;27.40;37.80;;;;;;5052779;28;20440;-63
2022/05/10 12:28:41;;;;;;;5.57;3.20;;;27.30;36.60;;;;;;5052491;28;20441;-63
2022/05/10 12:31:26;;;;;;;8.33;3.40;;;27.30;39.70;;;;;;5052578;28;20531;-63
2022/05/10 12:34:01;;;;;;;3.10;2.80;;;27.40;38.30;;;;;;5051980;28;20511;-63
2022/05/10 12:36:29;;;;;;;3.03;2.73;;;27.40;35.80;;;;;;5052567;28;20471;-64
2022/05/10 12:39:19;;;;;;;5.93;3.50;;;27.40;37.10;;;;;;5052162;28;20965;-63
2022/05/10 12:41:52;;;;;;;5.20;3.17;;;27.50;37.50;;;;;;5052733;28;20441;-65
2022/05/10 12:44:39;;;;;;;4.40;3.43;;;27.50;37.90;;;;;;5055558;28;20535;-64
2022/05/10 12:47:34;;;;;;;3.70;3.30;;;27.50;35.70;;;;;;5055702;28;20999;-63
2022/05/10 12:50:21;;;;;;;3.67;3.00;;;27.40;35.00;;;;;;5056184;28;20709;-63
2022/05/10 12:52:48;;;;;;;4.40;3.43;;;27.40;35.00;;;;;;5055911;28;20585;-65
2022/05/10 12:55:21;;;;;;;4.67;3.00;;;27.50;38.40;;;;;;5056244;28;20827;-63
2022/05/10 12:57:55;;;;;;;4.60;3.10;;;27.50;37.90;;;;;;5055725;28;20539;-64
2022/05/10 13:00:24;;;;;;;5.73;3.13;;;27.50;36.30;;;;;;5055911;28;20478;-65
2022/05/10 13:02:58;;;;;;;7.93;3.67;;;27.50;36.10;;;;;;5056025;28;20523;-63
2022/05/10 13:05:40;;;;;;;4.03;3.33;;;27.60;36.50;;;;;;5055764;28;20498;-64
2022/05/10 13:08:27;;;;;;;6.40;2.93;;;27.50;34.20;;;;;;5055946;28;20444;-64
2022/05/10 13:10:56;;;;;;;2.93;2.63;;;27.50;34.00;;;;;;5055812;28;20599;-63
2022/05/10 13:13:27;;;;;;;3.80;3.20;;;27.40;34.10;;;;;;5055687;28;20516;-64
2022/05/10 13:15:55;;;;;;;3.63;2.90;;;27.30;33.80;;;;;;5055664;28;20433;-64
2022/05/10 13:18:25;;;;;;;3.50;2.97;;;27.20;33.10;;;;;;5055604;28;20447;-66
2022/05/10 13:20:55;;;;;;;9.47;3.13;;;27.10;34.50;;;;;;5055352;28;20447;-64
2022/05/10 13:23:28;;;;;;;4.20;3.67;;;27.20;36.00;;;;;;5055458;28;20444;-63
2022/05/10 13:26:05;;;;;;;4.27;3.20;;;27.30;35.90;;;;;;5055500;28;20448;-63